createdAt,value
2018-06-11T00:00:08.148Z,22.90
2018-06-11T00:01:08.456Z,23.00
2018-06-11T00:02:08.690Z,22.00
2018-06-11T00:03:08.930Z,20.80
2018-06-11T00:04:09.179Z,19.70
2018-06-11T00:05:09.405Z,19.90
2018-06-11T00:06:09.634Z,19.80
2018-06-11T00:07:09.867Z,20.70
2018-06-11T00:08:10.101Z,21.80
2018-06-11T00:09:10.364Z,20.70
2018-06-11T00:10:10.625Z,21.30
2018-06-11T00:11:10.909Z,20.50
2018-06-11T00:12:11.151Z,21.60
2018-06-11T00:13:11.369Z,20.00
2018-06-11T00:14:11.645Z,20.10
2018-06-11T00:15:11.906Z,19.90
2018-06-11T00:16:12.095Z,21.20
2018-06-11T00:17:12.339Z,20.20
2018-06-11T00:18:12.615Z,21.30
2018-06-11T00:19:12.910Z,21.10
2018-06-11T00:20:13.119Z,22.10
2018-06-11T00:21:13.389Z,21.10
2018-06-11T00:22:13.588Z,20.80
2018-06-11T00:23:13.821Z,20.10
2018-06-11T00:24:14.042Z,20.20
2018-06-11T00:25:14.307Z,19.70
2018-06-11T00:26:14.555Z,19.30
2018-06-11T00:27:14.782Z,18.90
2018-06-11T00:28:14.995Z,20.20
2018-06-11T00:29:15.278Z,18.00
2018-06-11T00:30:15.486Z,19.10
2018-06-11T00:31:15.693Z,18.80
2018-06-11T00:32:16.005Z,18.90
2018-06-11T00:33:16.208Z,19.90
2018-06-11T00:34:16.419Z,19.10
2018-06-11T00:35:16.715Z,19.80
2018-06-11T00:36:16.959Z,19.50
2018-06-11T00:37:17.182Z,19.20
2018-06-11T00:38:17.436Z,19.50
2018-06-11T00:39:17.680Z,19.40
2018-06-11T00:40:17.938Z,19.40
2018-06-11T00:41:18.206Z,19.70
2018-06-11T00:42:18.503Z,21.20
2018-06-11T00:43:18.699Z,20.70
2018-06-11T00:44:18.937Z,19.80
2018-06-11T00:45:19.178Z,19.90
2018-06-11T00:46:19.456Z,19.90
2018-06-11T00:47:19.659Z,20.70
2018-06-11T00:48:19.901Z,19.90
2018-06-11T00:49:20.136Z,19.80
2018-06-11T00:50:20.397Z,20.40
2018-06-11T00:51:20.616Z,21.40
2018-06-11T00:52:20.856Z,20.80
2018-06-11T00:53:21.132Z,20.00
2018-06-11T00:54:21.368Z,19.50
2018-06-11T00:55:21.612Z,21.00
2018-06-11T00:56:21.870Z,19.80
2018-06-11T00:57:22.093Z,19.50
2018-06-11T00:58:22.365Z,17.70
2018-06-11T00:59:22.611Z,18.60
2018-06-11T01:00:22.846Z,18.20
2018-06-11T01:01:23.075Z,18.60
2018-06-11T01:02:23.313Z,18.20
2018-06-11T01:03:23.580Z,19.00
2018-06-11T01:04:23.806Z,19.00
2018-06-11T01:05:24.052Z,18.90
2018-06-11T01:06:24.276Z,19.70
2018-06-11T01:07:24.521Z,19.60
2018-06-11T01:08:24.769Z,20.50
2018-06-11T01:09:25.000Z,21.40
2018-06-11T01:10:25.264Z,21.40
2018-06-11T01:11:25.513Z,23.20
2018-06-11T01:12:25.712Z,23.30
2018-06-11T01:13:25.976Z,22.80
2018-06-11T01:14:26.203Z,22.30
2018-06-11T01:15:26.435Z,23.20
2018-06-11T01:16:26.701Z,23.00
2018-06-11T01:17:26.949Z,22.40
2018-06-11T01:18:27.227Z,22.40
2018-06-11T01:19:27.393Z,22.20
2018-06-11T01:20:27.671Z,22.50
2018-06-11T01:21:27.904Z,22.50
2018-06-11T01:22:28.149Z,22.90
2018-06-11T01:23:28.387Z,22.80
2018-06-11T01:24:28.680Z,23.30
2018-06-11T01:25:28.867Z,22.80
2018-06-11T01:26:29.136Z,24.40
2018-06-11T01:27:29.384Z,24.10
2018-06-11T01:28:29.684Z,24.20
2018-06-11T01:29:39.625Z,24.00
2018-06-11T01:30:30.183Z,24.60
2018-06-11T01:31:30.404Z,23.80
2018-06-11T01:32:39.358Z,24.50
2018-06-11T01:33:30.945Z,24.70
2018-06-11T01:34:31.132Z,26.20
2018-06-11T01:35:31.356Z,25.10
2018-06-11T01:36:31.533Z,25.70
2018-06-11T01:37:31.757Z,26.30
2018-06-11T01:38:31.991Z,28.50
2018-06-11T01:39:32.192Z,28.50
2018-06-11T01:40:32.435Z,30.00
2018-06-11T01:41:32.701Z,29.60
2018-06-11T01:42:32.920Z,29.60
2018-06-11T01:43:33.169Z,27.30
2018-06-11T01:44:33.411Z,29.60
2018-06-11T01:45:33.670Z,31.00
2018-06-11T01:46:33.909Z,28.80
2018-06-11T01:47:34.141Z,31.50
2018-06-11T01:48:34.372Z,31.90
2018-06-11T01:49:34.650Z,30.90
2018-06-11T01:50:34.849Z,31.90
2018-06-11T01:51:35.090Z,30.50
2018-06-11T01:52:35.325Z,31.10
2018-06-11T01:53:35.616Z,29.40
2018-06-11T01:54:35.790Z,30.60
2018-06-11T01:55:36.056Z,30.10
2018-06-11T01:56:36.280Z,31.40
2018-06-11T01:57:45.220Z,31.00
2018-06-11T01:58:37.011Z,30.10
2018-06-11T01:59:37.198Z,31.70
2018-06-11T02:00:37.402Z,30.80
2018-06-11T02:01:37.636Z,32.20
2018-06-11T02:02:37.863Z,31.80
2018-06-11T02:03:38.133Z,31.50
2018-06-11T02:04:38.394Z,32.40
2018-06-11T02:05:38.598Z,33.10
2018-06-11T02:06:38.858Z,31.50
2018-06-11T02:07:39.084Z,31.80
2018-06-11T02:08:39.335Z,32.90
2018-06-11T02:09:39.593Z,31.00
2018-06-11T02:10:39.846Z,30.80
2018-06-11T02:11:40.060Z,33.00
2018-06-11T02:12:40.289Z,32.30
2018-06-11T02:13:40.518Z,32.00
2018-06-11T02:14:40.739Z,31.10
2018-06-11T02:15:40.977Z,31.60
2018-06-11T02:16:50.275Z,31.60
2018-06-11T02:17:41.823Z,30.50
2018-06-11T02:18:41.847Z,32.00
2018-06-11T02:19:42.055Z,32.80
2018-06-11T02:20:42.260Z,32.70
2018-06-11T02:21:42.499Z,31.10
2018-06-11T02:22:51.486Z,31.60
2018-06-11T02:23:51.893Z,31.10
2018-06-11T02:24:43.790Z,31.70
2018-06-11T02:25:44.059Z,30.70
2018-06-11T02:26:44.170Z,31.10
2018-06-11T02:27:44.396Z,30.20
2018-06-11T02:28:44.673Z,30.60
2018-06-11T02:29:44.923Z,30.10
2018-06-11T02:30:45.162Z,29.90
2018-06-11T02:31:45.406Z,31.00
2018-06-11T02:32:45.632Z,30.00
2018-06-11T02:33:45.858Z,30.80
2018-06-11T02:34:46.089Z,30.70
2018-06-11T02:35:46.307Z,31.10
2018-06-11T02:36:46.557Z,31.10
2018-06-11T02:37:46.850Z,32.50
2018-06-11T02:38:47.039Z,30.40
2018-06-11T02:39:47.308Z,32.50
2018-06-11T02:40:47.545Z,32.50
2018-06-11T02:41:47.771Z,33.00
2018-06-11T02:42:48.044Z,32.20
2018-06-11T02:43:48.346Z,32.70
2018-06-11T02:44:48.543Z,32.50
2018-06-11T02:45:48.774Z,32.10
2018-06-11T02:46:49.028Z,30.50
2018-06-11T02:47:49.238Z,31.90
2018-06-11T02:48:49.517Z,32.00
2018-06-11T02:49:49.738Z,30.20
2018-06-11T02:50:50.033Z,30.30
2018-06-11T02:51:50.261Z,30.90
2018-06-11T02:52:50.477Z,31.40
2018-06-11T02:53:50.735Z,33.10
2018-06-11T02:54:50.988Z,33.10
2018-06-11T02:55:51.193Z,34.30
2018-06-11T02:56:51.459Z,32.80
2018-06-11T02:57:51.686Z,34.10
2018-06-11T02:58:51.947Z,34.30
2018-06-11T02:59:52.180Z,32.80
2018-06-11T03:00:52.401Z,32.60
2018-06-11T03:01:52.651Z,33.70
2018-06-11T03:02:52.927Z,33.50
2018-06-11T03:03:53.165Z,33.00
2018-06-11T03:04:53.397Z,33.30
2018-06-11T03:05:53.651Z,33.60
2018-06-11T03:06:53.894Z,33.90
2018-06-11T03:07:54.142Z,35.40
2018-06-11T03:08:54.385Z,35.30
2018-06-11T03:09:54.644Z,34.60
2018-06-11T03:10:55.867Z,34.40
2018-06-11T03:11:55.234Z,35.00
2018-06-11T03:12:55.528Z,34.90
2018-06-11T03:13:55.831Z,35.70
2018-06-11T03:14:56.036Z,34.70
2018-06-11T03:15:56.296Z,34.80
2018-06-11T03:16:56.527Z,36.90
2018-06-11T03:17:56.746Z,35.40
2018-06-11T03:18:56.986Z,35.60
2018-06-11T03:19:57.236Z,35.40
2018-06-11T03:20:57.526Z,36.50
2018-06-11T03:21:57.789Z,36.30
2018-06-11T03:22:58.024Z,37.10
2018-06-11T03:23:58.296Z,35.40
2018-06-11T03:24:58.534Z,34.20
2018-06-11T03:25:58.754Z,32.20
2018-06-11T03:26:59.020Z,32.00
2018-06-11T03:27:59.250Z,28.60
2018-06-11T03:28:59.488Z,27.40
2018-06-11T03:29:59.741Z,29.10
2018-06-11T03:31:00.019Z,28.30
2018-06-11T03:32:00.237Z,29.20
2018-06-11T03:33:00.480Z,29.10
2018-06-11T03:34:00.763Z,29.80
2018-06-11T03:35:01.066Z,34.70
2018-06-11T03:36:01.364Z,35.70
2018-06-11T03:37:01.580Z,36.80
2018-06-11T03:38:01.804Z,37.00
2018-06-11T03:39:02.079Z,37.30
2018-06-11T03:40:02.358Z,38.70
2018-06-11T03:41:02.566Z,37.40
2018-06-11T03:42:02.790Z,36.90
2018-06-11T03:43:03.018Z,38.10
2018-06-11T03:44:03.291Z,36.80
2018-06-11T03:45:03.629Z,38.60
2018-06-11T03:46:03.909Z,38.70
2018-06-11T03:47:04.194Z,39.90
2018-06-11T03:48:04.435Z,38.10
2018-06-11T03:49:04.718Z,38.70
2018-06-11T03:50:04.964Z,38.50
2018-06-11T03:51:05.251Z,38.70
2018-06-11T03:52:05.466Z,39.30
2018-06-11T03:53:05.735Z,41.20
2018-06-11T03:54:06.013Z,39.20
2018-06-11T03:55:06.245Z,38.30
2018-06-11T03:56:06.523Z,38.00
2018-06-11T03:57:06.733Z,39.20
2018-06-11T03:58:07.021Z,37.80
2018-06-11T03:59:07.249Z,38.60
2018-06-11T04:00:07.521Z,37.90
2018-06-11T04:01:07.734Z,37.40
2018-06-11T04:02:07.991Z,37.90
2018-06-11T04:03:08.254Z,38.00
2018-06-11T04:04:08.554Z,37.60
2018-06-11T04:05:08.760Z,38.00
2018-06-11T04:06:09.054Z,35.60
2018-06-11T04:07:09.305Z,36.60
2018-06-11T04:08:09.608Z,36.00
2018-06-11T04:09:09.767Z,35.80
2018-06-11T04:10:09.999Z,36.50
2018-06-11T04:11:10.291Z,34.90
2018-06-11T04:12:10.514Z,34.90
2018-06-11T04:13:10.766Z,35.10
2018-06-11T04:14:11.017Z,35.80
2018-06-11T04:15:11.306Z,35.60
2018-06-11T04:16:11.552Z,35.80
2018-06-11T04:17:11.839Z,35.30
2018-06-11T04:18:12.059Z,35.80
2018-06-11T04:19:12.273Z,35.50
2018-06-11T04:20:12.585Z,35.00
2018-06-11T04:21:12.904Z,32.90
2018-06-11T04:22:26.860Z,32.70
2018-06-11T04:23:18.491Z,33.00
2018-06-11T04:24:20.095Z,33.70
2018-06-11T04:25:18.410Z,35.30
2018-06-11T04:26:15.825Z,32.80
2018-06-11T04:27:14.711Z,33.70
2018-06-11T04:28:14.957Z,34.40
2018-06-11T04:29:15.330Z,34.90
2018-06-11T04:30:15.568Z,34.70
2018-06-11T04:31:15.900Z,34.40
2018-06-11T04:32:16.261Z,34.90
2018-06-11T04:33:16.788Z,34.10
2018-06-11T04:36:37.947Z,34.50
2018-06-11T04:37:43.927Z,33.80
2018-06-11T04:38:41.856Z,34.50
2018-06-11T04:39:47.102Z,34.30
2018-06-11T04:40:38.897Z,32.00
2018-06-11T04:41:38.833Z,33.20
2018-06-11T04:42:39.061Z,33.40
2018-06-11T04:43:39.491Z,31.90
2018-06-11T04:44:39.748Z,34.50
2018-06-11T04:45:39.992Z,32.80
2018-06-11T04:46:40.228Z,31.80
2018-06-11T04:47:40.501Z,32.50
2018-06-11T04:48:44.541Z,32.80
2018-06-11T04:49:42.232Z,32.20
2018-06-11T04:50:41.527Z,32.50
2018-06-11T04:51:41.826Z,33.10
2018-06-11T04:52:42.171Z,33.50
2018-06-11T04:53:42.434Z,33.20
2018-06-11T04:54:42.672Z,32.60
2018-06-11T04:55:42.900Z,33.10
2018-06-11T04:56:58.551Z,33.00
2018-06-11T04:57:46.359Z,32.40
2018-06-11T04:58:44.522Z,32.90
2018-06-11T04:59:55.030Z,31.90
2018-06-11T05:02:18.216Z,31.90
2018-06-11T05:03:18.277Z,31.80
2018-06-11T05:04:18.163Z,31.10
2018-06-11T05:05:18.421Z,32.10
2018-06-11T05:06:18.668Z,32.20
2018-06-11T05:07:18.912Z,32.50
2018-06-11T05:08:19.133Z,31.40
2018-06-11T05:09:19.397Z,31.70
2018-06-11T05:10:19.613Z,30.70
2018-06-11T05:11:19.862Z,32.60
2018-06-11T05:12:20.112Z,30.40
2018-06-11T05:13:20.368Z,30.50
2018-06-11T05:14:20.589Z,31.30
2018-06-11T05:15:20.844Z,31.80
2018-06-11T05:16:21.099Z,30.60
2018-06-11T05:17:21.365Z,31.40
2018-06-11T05:18:21.612Z,29.40
2018-06-11T05:19:21.845Z,30.30
2018-06-11T05:20:22.062Z,30.80
2018-06-11T05:21:22.296Z,31.20
2018-06-11T05:22:22.540Z,30.70
2018-06-11T05:23:22.779Z,30.60
2018-06-11T05:24:23.080Z,30.40
2018-06-11T05:25:23.299Z,30.60
2018-06-11T05:26:23.511Z,30.00
2018-06-11T05:27:23.786Z,28.00
2018-06-11T05:28:24.043Z,30.20
2018-06-11T05:29:24.284Z,30.60
2018-06-11T05:30:24.547Z,29.70
2018-06-11T05:31:24.768Z,29.10
2018-06-11T05:32:25.033Z,29.60
2018-06-11T05:33:25.237Z,29.50
2018-06-11T05:34:25.481Z,29.80
2018-06-11T05:35:25.695Z,28.80
2018-06-11T05:36:25.939Z,29.20
2018-06-11T05:37:26.176Z,30.10
2018-06-11T05:38:35.148Z,29.60
2018-06-11T05:39:26.870Z,29.20
2018-06-11T05:40:27.193Z,29.40
2018-06-11T05:41:27.313Z,28.60
2018-06-11T05:42:27.524Z,27.40
2018-06-11T05:43:27.772Z,28.90
2018-06-11T05:44:28.027Z,28.20
2018-06-11T05:45:28.257Z,27.50
2018-06-11T05:46:28.527Z,29.00
2018-06-11T05:47:28.802Z,28.90
2018-06-11T05:48:28.998Z,27.50
2018-06-11T05:49:29.251Z,27.60
2018-06-11T05:50:29.481Z,26.80
2018-06-11T05:51:29.711Z,27.80
2018-06-11T05:52:29.970Z,27.30
2018-06-11T05:53:30.268Z,26.30
2018-06-11T05:54:30.430Z,27.30
2018-06-11T05:55:30.657Z,27.60
2018-06-11T05:56:30.877Z,27.70
2018-06-11T05:57:31.127Z,26.70
2018-06-11T05:58:31.373Z,26.90
2018-06-11T05:59:31.617Z,27.50
2018-06-11T06:00:31.868Z,26.90
2018-06-11T06:01:32.111Z,27.20
2018-06-11T06:02:32.361Z,27.80
2018-06-11T06:03:32.602Z,28.30
2018-06-11T06:04:32.839Z,27.40
2018-06-11T06:05:33.088Z,27.20
2018-06-11T06:06:33.327Z,28.00
2018-06-11T06:07:33.574Z,27.70
2018-06-11T06:08:33.818Z,29.20
2018-06-11T06:09:34.066Z,26.90
2018-06-11T06:10:34.308Z,26.20
2018-06-11T06:11:34.552Z,26.60
2018-06-11T06:12:34.797Z,26.10
2018-06-11T06:13:35.044Z,26.50
2018-06-11T06:14:35.290Z,26.10
2018-06-11T06:15:35.537Z,26.00
2018-06-11T06:16:35.775Z,26.60
2018-06-11T06:17:36.022Z,24.90
2018-06-11T06:18:36.250Z,25.20
2018-06-11T06:19:36.523Z,25.40
2018-06-11T06:20:36.737Z,24.30
2018-06-11T06:21:36.987Z,24.70
2018-06-11T06:22:37.218Z,24.20
2018-06-11T06:23:37.465Z,23.80
2018-06-11T06:24:37.713Z,23.90
2018-06-11T06:25:37.955Z,25.30
2018-06-11T06:26:38.205Z,24.20
2018-06-11T06:27:38.439Z,25.00
2018-06-11T06:28:38.686Z,23.60
2018-06-11T06:29:38.932Z,23.90
2018-06-11T06:30:39.177Z,24.10
2018-06-11T06:31:39.424Z,24.30
2018-06-11T06:32:39.669Z,23.20
2018-06-11T06:33:39.916Z,24.30
2018-06-11T06:34:40.176Z,23.70
2018-06-11T06:35:40.408Z,23.40
2018-06-11T06:36:40.657Z,23.50
2018-06-11T06:37:40.903Z,21.60
2018-06-11T06:38:41.153Z,22.80
2018-06-11T06:39:41.485Z,22.40
2018-06-11T06:40:41.661Z,22.30
2018-06-11T06:41:41.891Z,22.20
2018-06-11T06:42:42.136Z,22.00
2018-06-11T06:43:42.381Z,23.20
2018-06-11T06:44:42.629Z,22.40
2018-06-11T06:45:42.874Z,23.20
2018-06-11T06:46:43.119Z,23.00
2018-06-11T06:47:43.372Z,22.60
2018-06-11T06:48:43.619Z,22.70
2018-06-11T06:49:43.861Z,22.60
2018-06-11T06:50:44.107Z,21.80
2018-06-11T06:51:44.353Z,22.30
2018-06-11T06:52:44.618Z,21.60
2018-06-11T06:53:44.855Z,22.10
2018-06-11T06:54:45.091Z,22.50
2018-06-11T06:55:45.337Z,21.60
2018-06-11T06:56:45.584Z,22.20
2018-06-11T06:57:45.832Z,21.70
2018-06-11T06:58:46.076Z,21.70
2018-06-11T06:59:46.323Z,21.50
2018-06-11T07:00:46.568Z,21.80
2018-06-11T07:01:46.816Z,21.50
2018-06-11T07:02:47.062Z,21.70
2018-06-11T07:03:47.309Z,20.70
2018-06-11T07:04:47.556Z,21.20
2018-06-11T07:05:47.803Z,20.00
2018-06-11T07:06:48.050Z,21.20
2018-06-11T07:07:48.301Z,21.30
2018-06-11T07:08:48.541Z,21.30
2018-06-11T07:09:48.793Z,19.80
2018-06-11T07:10:49.035Z,20.60
2018-06-11T07:11:49.282Z,21.20
2018-06-11T07:12:49.530Z,19.20
2018-06-11T07:13:49.777Z,20.50
2018-06-11T07:14:50.024Z,20.00
2018-06-11T07:15:50.272Z,20.50
2018-06-11T07:16:50.522Z,19.80
2018-06-11T07:17:50.765Z,19.90
2018-06-11T07:18:51.019Z,19.60
2018-06-11T07:19:51.262Z,19.40
2018-06-11T07:20:51.511Z,19.70
2018-06-11T07:21:51.760Z,18.50
2018-06-11T07:22:52.010Z,18.80
2018-06-11T07:23:52.255Z,20.10
2018-06-11T07:24:52.502Z,19.80
2018-06-11T07:25:52.752Z,18.90
2018-06-11T07:26:52.998Z,19.30
2018-06-11T07:27:53.245Z,19.20
2018-06-11T07:28:53.492Z,18.30
2018-06-11T07:29:53.739Z,19.40
2018-06-11T07:30:53.987Z,19.30
2018-06-11T07:31:54.241Z,18.50
2018-06-11T07:32:54.478Z,18.20
2018-06-11T07:33:54.732Z,18.50
2018-06-11T07:34:54.999Z,18.10
2018-06-11T07:35:55.211Z,17.60
2018-06-11T07:36:55.464Z,18.60
2018-06-11T07:37:55.710Z,18.30
2018-06-11T07:38:55.960Z,18.50
2018-06-11T07:39:56.206Z,18.20
2018-06-11T07:40:56.504Z,17.70
2018-06-11T07:41:56.698Z,17.00
2018-06-11T07:42:56.947Z,17.40
2018-06-11T07:43:57.196Z,17.10
2018-06-11T07:44:57.445Z,16.80
2018-06-11T07:45:57.693Z,16.20
2018-06-11T07:46:57.943Z,16.10
2018-06-11T07:47:58.237Z,16.20
2018-06-11T07:48:58.440Z,16.50
2018-06-11T07:49:58.691Z,14.60
2018-06-11T07:50:58.940Z,15.50
2018-06-11T07:51:59.189Z,14.20
2018-06-11T07:52:59.439Z,15.00
2018-06-11T07:53:59.688Z,15.00
2018-06-11T07:54:59.939Z,15.10
2018-06-11T07:56:00.189Z,15.50
2018-06-11T07:57:00.439Z,15.30
2018-06-11T07:58:00.688Z,15.50
2018-06-11T07:59:00.939Z,14.70
2018-06-11T08:00:01.268Z,13.50
2018-06-11T08:01:01.434Z,15.00
2018-06-11T08:02:01.693Z,15.10
2018-06-11T08:03:01.947Z,15.40
2018-06-11T08:04:02.193Z,13.80
2018-06-11T08:05:02.443Z,15.10
2018-06-11T08:06:02.693Z,15.10
2018-06-11T08:07:02.942Z,14.60
2018-06-11T08:08:03.193Z,14.10
2018-06-11T08:09:03.442Z,14.50
2018-06-11T08:10:03.693Z,14.30
2018-06-11T08:11:03.940Z,14.20
2018-06-11T08:12:04.191Z,12.60
2018-06-11T08:13:04.442Z,13.40
2018-06-11T08:14:04.697Z,13.30
2018-06-11T08:15:04.943Z,13.10
2018-06-11T08:16:05.191Z,13.40
2018-06-11T08:17:05.442Z,13.60
2018-06-11T08:18:05.696Z,13.10
2018-06-11T08:19:05.944Z,13.10
2018-06-11T08:20:06.190Z,13.50
2018-06-11T08:21:06.445Z,13.40
2018-06-11T08:22:06.697Z,13.60
2018-06-11T08:23:06.952Z,13.50
2018-06-11T08:24:07.200Z,13.80
2018-06-11T08:25:07.448Z,13.00
2018-06-11T08:26:07.701Z,12.70
2018-06-11T08:27:07.952Z,12.80
2018-06-11T08:28:08.205Z,12.40
2018-06-11T08:29:08.457Z,12.30
2018-06-11T08:30:08.708Z,12.30
2018-06-11T08:31:08.960Z,13.60
2018-06-11T08:32:09.212Z,12.80
2018-06-11T08:33:09.464Z,12.00
2018-06-11T08:34:09.717Z,12.90
2018-06-11T08:35:09.968Z,13.00
2018-06-11T08:36:10.222Z,13.10
2018-06-11T08:37:10.469Z,12.30
2018-06-11T08:38:10.725Z,11.80
2018-06-11T08:39:10.977Z,11.90
2018-06-11T08:40:11.231Z,12.30
2018-06-11T08:41:11.480Z,12.20
2018-06-11T08:42:11.732Z,12.00
2018-06-11T08:43:12.045Z,12.80
2018-06-11T08:44:12.236Z,12.20
2018-06-11T08:45:12.488Z,12.20
2018-06-11T08:46:12.741Z,12.00
2018-06-11T08:47:12.992Z,12.70
2018-06-11T08:48:13.244Z,12.00
2018-06-11T08:49:13.498Z,12.60
2018-06-11T08:50:13.749Z,12.90
2018-06-11T08:51:13.996Z,12.60
2018-06-11T08:52:14.245Z,11.90
2018-06-11T08:53:14.499Z,12.20
2018-06-11T08:54:14.750Z,12.50
2018-06-11T08:55:15.000Z,12.90
2018-06-11T08:56:15.250Z,12.30
2018-06-11T08:57:15.503Z,11.60
2018-06-11T08:58:15.754Z,11.90
2018-06-11T08:59:16.006Z,12.30
2018-06-11T09:00:16.260Z,12.20
2018-06-11T09:01:16.508Z,11.70
2018-06-11T09:02:16.761Z,12.20
2018-06-11T09:03:17.016Z,11.00
2018-06-11T09:04:17.264Z,11.20
2018-06-11T09:05:17.515Z,11.90
2018-06-11T09:06:17.767Z,11.60
2018-06-11T09:07:18.017Z,11.30
2018-06-11T09:08:18.268Z,11.70
2018-06-11T09:09:18.519Z,11.80
2018-06-11T09:10:18.771Z,12.00
2018-06-11T09:11:19.021Z,11.00
2018-06-11T09:12:19.274Z,10.80
2018-06-11T09:13:19.525Z,11.40
2018-06-11T09:14:19.779Z,11.10
2018-06-11T09:15:20.028Z,11.90
2018-06-11T09:16:20.279Z,11.20
2018-06-11T09:17:20.532Z,11.20
2018-06-11T09:18:20.984Z,11.70
2018-06-11T09:19:21.034Z,11.20
2018-06-11T09:20:21.285Z,11.30
2018-06-11T09:21:21.536Z,11.60
2018-06-11T09:22:21.787Z,10.70
2018-06-11T09:23:22.038Z,11.60
2018-06-11T09:24:22.292Z,11.90
2018-06-11T09:25:22.540Z,11.50
2018-06-11T09:26:22.790Z,11.70
2018-06-11T09:27:23.040Z,11.50
2018-06-11T09:28:23.293Z,10.20
2018-06-11T09:29:23.542Z,10.70
2018-06-11T09:30:23.795Z,10.90
2018-06-11T09:31:24.046Z,11.40
2018-06-11T09:32:24.296Z,11.20
2018-06-11T09:33:24.547Z,11.70
2018-06-11T09:34:24.800Z,11.30
2018-06-11T09:35:25.051Z,11.90
2018-06-11T09:36:25.302Z,10.80
2018-06-11T09:37:25.554Z,11.00
2018-06-11T09:38:25.815Z,10.50
2018-06-11T09:39:26.069Z,9.90
2018-06-11T09:40:26.318Z,9.60
2018-06-11T09:41:26.569Z,9.90
2018-06-11T09:42:26.821Z,11.00
2018-06-11T09:43:27.073Z,9.60
2018-06-11T09:44:27.321Z,9.20
2018-06-11T09:45:27.572Z,9.20
2018-06-11T09:46:27.824Z,10.10
2018-06-11T09:47:28.075Z,9.50
2018-06-11T09:48:28.327Z,10.00
2018-06-11T09:49:28.579Z,10.50
2018-06-11T09:50:28.831Z,10.60
2018-06-11T09:51:29.082Z,10.50
2018-06-11T09:52:29.333Z,9.60
2018-06-11T09:53:29.583Z,10.00
2018-06-11T09:54:29.833Z,9.80
2018-06-11T09:55:30.083Z,9.70
2018-06-11T09:56:30.334Z,10.10
2018-06-11T09:57:30.584Z,9.30
2018-06-11T09:58:30.839Z,9.20
2018-06-11T09:59:31.089Z,9.80
2018-06-11T10:00:31.340Z,9.70
2018-06-11T10:01:31.590Z,9.20
2018-06-11T10:02:31.843Z,9.80
2018-06-11T10:03:32.119Z,9.80
2018-06-11T10:04:32.344Z,9.80
2018-06-11T10:05:32.598Z,9.50
2018-06-11T10:06:32.847Z,8.40
2018-06-11T10:07:33.095Z,9.80
2018-06-11T10:08:33.347Z,9.70
2018-06-11T10:09:33.599Z,9.20
2018-06-11T10:10:33.851Z,9.20
2018-06-11T10:11:34.103Z,9.30
2018-06-11T10:12:34.408Z,9.00
2018-06-11T10:13:34.617Z,9.40
2018-06-11T10:14:34.854Z,8.90
2018-06-11T10:15:35.109Z,9.30
2018-06-11T10:16:35.361Z,9.20
2018-06-11T10:17:35.615Z,9.20
2018-06-11T10:18:35.865Z,9.30
2018-06-11T10:19:36.113Z,9.00
2018-06-11T10:20:36.368Z,8.00
2018-06-11T10:21:36.620Z,8.00
2018-06-11T10:22:36.873Z,8.50
2018-06-11T10:23:37.127Z,7.50
2018-06-11T10:24:37.380Z,8.60
2018-06-11T10:25:37.632Z,8.50
2018-06-11T10:26:37.883Z,8.00
2018-06-11T10:27:38.135Z,8.20
2018-06-11T10:28:38.389Z,8.00
2018-06-11T10:29:38.641Z,8.10
2018-06-11T10:30:38.894Z,8.70
2018-06-11T10:31:39.149Z,8.10
2018-06-11T10:32:39.403Z,7.10
2018-06-11T10:33:39.653Z,7.40
2018-06-11T10:34:39.911Z,7.50
2018-06-11T10:35:40.161Z,7.10
2018-06-11T10:36:40.415Z,7.30
2018-06-11T10:37:40.668Z,7.50
2018-06-11T10:38:40.925Z,7.90
2018-06-11T10:39:41.177Z,7.40
2018-06-11T10:40:41.430Z,7.40
2018-06-11T10:41:41.687Z,7.50
2018-06-11T10:42:41.942Z,8.00
2018-06-11T10:43:42.194Z,7.80
2018-06-11T10:44:42.451Z,7.70
2018-06-11T10:45:42.704Z,7.80
2018-06-11T10:46:42.956Z,7.80
2018-06-11T10:47:43.210Z,7.60
2018-06-11T10:48:43.467Z,7.40
2018-06-11T10:49:43.721Z,7.00
2018-06-11T10:50:43.977Z,6.60
2018-06-11T10:51:44.229Z,7.10
2018-06-11T10:52:44.482Z,7.70
2018-06-11T10:53:44.739Z,7.20
2018-06-11T10:54:44.990Z,8.20
2018-06-11T10:55:45.247Z,8.30
2018-06-11T10:56:45.500Z,7.80
2018-06-11T10:57:45.754Z,8.10
2018-06-11T10:58:46.007Z,8.10
2018-06-11T10:59:46.260Z,8.20
2018-06-11T11:00:46.513Z,7.70
2018-06-11T11:01:46.768Z,8.40
2018-06-11T11:02:47.019Z,7.60
2018-06-11T11:03:47.272Z,8.10
2018-06-11T11:04:47.527Z,7.90
2018-06-11T11:05:47.778Z,8.20
2018-06-11T11:06:48.030Z,8.50
2018-06-11T11:07:48.284Z,8.30
2018-06-11T11:08:48.539Z,8.10
2018-06-11T11:09:48.790Z,7.90
2018-06-11T11:10:49.045Z,9.00
2018-06-11T11:11:49.297Z,8.50
2018-06-11T11:12:49.551Z,8.70
2018-06-11T11:13:49.804Z,8.50
2018-06-11T11:14:50.077Z,8.20
2018-06-11T11:15:50.325Z,8.20
2018-06-11T11:16:50.615Z,8.80
2018-06-11T11:17:50.909Z,9.30
2018-06-11T11:18:51.173Z,8.90
2018-06-11T11:19:51.429Z,8.60
2018-06-11T11:20:51.685Z,8.40
2018-06-11T11:21:51.944Z,8.50
2018-06-11T11:22:52.190Z,8.20
2018-06-11T11:23:52.479Z,8.30
2018-06-11T11:24:52.745Z,8.60
2018-06-11T11:25:52.998Z,8.80
2018-06-11T11:26:53.254Z,8.00
2018-06-11T11:27:53.508Z,8.10
2018-06-11T11:28:53.764Z,8.10
2018-06-11T11:29:54.016Z,7.40
2018-06-11T11:30:54.270Z,7.60
2018-06-11T11:31:54.524Z,8.30
2018-06-11T11:32:54.779Z,8.10
2018-06-11T11:33:55.033Z,8.60
2018-06-11T11:34:55.286Z,8.40
2018-06-11T11:35:55.541Z,8.70
2018-06-11T11:36:55.796Z,8.40
2018-06-11T11:37:56.048Z,8.10
2018-06-11T11:38:56.304Z,8.00
2018-06-11T11:39:56.556Z,7.80
2018-06-11T11:40:56.807Z,8.70
2018-06-11T11:41:57.063Z,8.00
2018-06-11T11:42:57.318Z,7.70
2018-06-11T11:43:57.573Z,8.10
2018-06-11T11:44:57.828Z,7.70
2018-06-11T11:45:58.082Z,8.80
2018-06-11T11:46:58.334Z,8.40
2018-06-11T11:47:58.589Z,7.80
2018-06-11T11:48:58.844Z,7.90
2018-06-11T11:49:59.095Z,7.50
2018-06-11T11:50:59.349Z,7.70
2018-06-11T11:51:59.605Z,8.00
2018-06-11T11:52:59.859Z,8.60
2018-06-11T11:54:00.112Z,8.20
2018-06-11T11:55:00.369Z,8.30
2018-06-11T11:56:00.623Z,7.20
2018-06-11T11:57:00.880Z,7.00
2018-06-11T11:58:01.131Z,7.50
2018-06-11T11:59:01.385Z,7.80
2018-06-11T12:00:01.656Z,7.30
2018-06-11T12:01:01.908Z,7.00
2018-06-11T12:02:02.161Z,7.40
2018-06-11T12:03:02.416Z,7.40
2018-06-11T12:04:02.670Z,8.70
2018-06-11T12:05:02.937Z,7.90
2018-06-11T12:06:03.193Z,7.50
2018-06-11T12:07:03.448Z,7.20
2018-06-11T12:08:03.703Z,8.60
2018-06-11T12:09:03.956Z,9.30
2018-06-11T12:10:04.210Z,9.80
2018-06-11T12:11:04.465Z,9.60
2018-06-11T12:12:04.719Z,9.40
2018-06-11T12:13:04.974Z,9.50
2018-06-11T12:14:05.232Z,8.40
2018-06-11T12:15:05.484Z,9.00
2018-06-11T12:16:05.738Z,9.00
2018-06-11T12:17:05.992Z,7.40
2018-06-11T12:18:06.248Z,7.60
2018-06-11T12:19:06.505Z,7.80
2018-06-11T12:20:06.756Z,8.30
2018-06-11T12:21:07.011Z,8.40
2018-06-11T12:22:07.264Z,8.40
2018-06-11T12:23:07.518Z,9.10
2018-06-11T12:24:07.772Z,9.20
2018-06-11T12:25:08.060Z,8.70
2018-06-11T12:26:08.281Z,9.40
2018-06-11T12:27:08.540Z,9.10
2018-06-11T12:28:08.789Z,8.80
2018-06-11T12:29:09.043Z,7.90
2018-06-11T12:30:09.298Z,8.20
2018-06-11T12:31:09.554Z,9.10
2018-06-11T12:32:09.805Z,9.40
2018-06-11T12:33:10.061Z,9.00
2018-06-11T12:34:10.314Z,9.30
2018-06-11T12:35:10.569Z,8.20
2018-06-11T12:36:10.827Z,8.30
2018-06-11T12:37:11.075Z,8.30
2018-06-11T12:38:11.328Z,8.30
2018-06-11T12:39:11.582Z,8.10
2018-06-11T12:40:11.835Z,8.00
2018-06-11T12:41:12.091Z,8.20
2018-06-11T12:42:12.339Z,8.70
2018-06-11T12:43:12.593Z,8.40
2018-06-11T12:44:12.848Z,8.30
2018-06-11T12:45:13.104Z,8.50
2018-06-11T12:46:13.359Z,7.80
2018-06-11T12:47:13.665Z,7.60
2018-06-11T12:48:13.908Z,8.10
2018-06-11T12:49:14.162Z,8.80
2018-06-11T12:50:14.415Z,8.30
2018-06-11T12:51:14.658Z,8.20
2018-06-11T12:52:14.916Z,8.10
2018-06-11T12:53:15.169Z,9.20
2018-06-11T12:54:15.423Z,8.60
2018-06-11T12:55:15.681Z,9.50
2018-06-11T12:56:15.944Z,9.00
2018-06-11T12:57:16.183Z,8.80
2018-06-11T12:58:16.437Z,9.00
2018-06-11T12:59:16.692Z,9.10
2018-06-11T13:00:16.946Z,8.80
2018-06-11T13:01:17.200Z,8.70
2018-06-11T13:02:17.460Z,8.60
2018-06-11T13:03:17.707Z,8.70
2018-06-11T13:04:17.963Z,8.70
2018-06-11T13:05:18.217Z,9.10
2018-06-11T13:06:18.472Z,9.30